Nearby METAR Reports

Aktualna pogoda na lotniskach (dane METAR)

 

EPGD - Gdansk/Rebiechow, Poland
Distance from station: ENE 27mi, 44km
Updated: Thu, 21-Mar-2019 12:30pm PDT
Overcast
Overcast
 Wind from W
Wind: W 23 mph , 37 km/h
Temperature: 48°F , 9°C
Wind Chill: 40°F , 4°C
Dew Point: 45°F , 7°C
Humidity: 87%
Barometer: 30.33 inHg , 1027 hPa
Clouds: Overcast
Visibility: 4 miles , 7 km
Cloud details: Overcast 700 ft
2019/03/21 19:30 EPGD 211930Z 28020KT 7000 OVC007 09/07 Q1027
EPSC - Szczecin/Golenio, Poland
Distance from station: WSW 128mi, 205km
Updated: Thu, 21-Mar-2019 12:30pm PDT
Overcast
Overcast
 Wind from W
Wind: W 9 mph , 15 km/h
Temperature: 52°F , 11°C
Dew Point: 46°F , 8°C
Humidity: 82%
Barometer: 30.45 inHg , 1031 hPa
Clouds: Overcast
Visibility: 6 miles , 10 km
Cloud details: Partly Cloudy 2000 ft
Overcast 2400 ft
2019/03/21 19:30 EPSC 211930Z 28008KT 9999 SCT020 OVC024 11/08 Q1031
 
EPPO - Poznan/Lawica, Poland
Distance from station: SSW 131mi, 210km
Updated: Thu, 21-Mar-2019 12:30pm PDT
Overcast
Overcast
 Wind from W
Wind: W 8 mph , 13 km/h
Temperature: 50°F , 10°C
Wind Chill: 47°F , 8°C
Dew Point: 45°F , 7°C
Humidity: 82%
Barometer: 30.47 inHg , 1032 hPa
Clouds: Overcast
Visibility: 6 miles , 10 km
Cloud details: Overcast 1800 ft
2019/03/21 19:30 EPPO 211930Z 26007KT 9999 OVC018 10/07 Q1032
EPLL - Lodz/Lublinek, Poland
Distance from station: SSE 184mi, 296km
Updated: Thu, 21-Mar-2019 12:30pm PDT
Mostly Cloudy
Mostly Cloudy
 Wind from WSW
Wind: WSW 10 mph , 17 km/h
Temperature: 50°F , 10°C
Wind Chill: 46°F , 8°C
Dew Point: 45°F , 7°C
Humidity: 82%
Barometer: 30.45 inHg , 1031 hPa
Clouds: Mostly Cloudy
Visibility: 6 miles , 10 km
Cloud details: Mostly Cloudy 3100 ft
2019/03/21 19:30 EPLL 211930Z 25009KT 9999 BKN031 10/07 Q1031
 
EPWA - Warsaw/Okecie, Poland
Distance from station: SE 191mi, 307km
Updated: Thu, 21-Mar-2019 12:30pm PDT
Partly Cloudy
Partly Cloudy
 Wind from W
Wind: W 9 mph , 15 km/h
Temperature: 52°F , 11°C
Dew Point: 43°F , 6°C
Humidity: 72%
Barometer: 30.39 inHg , 1029 hPa
Clouds: Partly Cloudy
Visibility: 6 miles , 10 km
Cloud details: Partly Cloudy 4000 ft
2019/03/21 19:30 EPWA 211930Z 27008KT 9999 SCT040 11/06 Q1029 NOSIG
EPWR - Wroclaw/Strachow, Poland
Distance from station: S 219mi, 352km
Updated: Thu, 21-Mar-2019 12:30pm PDT
Clear
Clear
 Wind from varies
Wind: varies 1 mph , 2 km/h
Temperature: 43°F , 6°C
Dew Point: 39°F , 4°C
Humidity: 87%
Barometer: 30.5 inHg , 1033 hPa
Summary: Clear
Visibility: greater than 7 miles , 10 km
2019/03/21 19:30 EPWR 211930Z VRB01KT CAVOK 06/04 Q1033

Metar display script from Saratoga-Weather.org